sensor_id;sensor_type;location;lat;lon;timestamp;temperature;humidity
73875;HTU21D;62209;47.568;7.558;2023-09-19T00:09:42;17.73;91.06
73875;HTU21D;62209;47.568;7.558;2023-09-19T00:24:47;17.45;91.40
73875;HTU21D;62209;47.568;7.558;2023-09-19T00:39:54;17.24;91.83
73875;HTU21D;62209;47.568;7.558;2023-09-19T00:55:00;17.37;91.60
73875;HTU21D;62209;47.568;7.558;2023-09-19T01:10:06;17.46;92.11
73875;HTU21D;62209;47.568;7.558;2023-09-19T01:40:54;17.50;93.05
73875;HTU21D;62209;47.568;7.558;2023-09-19T01:56:07;17.47;93.01
73875;HTU21D;62209;47.568;7.558;2023-09-19T02:11:16;17.52;93.00
73875;HTU21D;62209;47.568;7.558;2023-09-19T02:26:22;17.91;92.52
73875;HTU21D;62209;47.568;7.558;2023-09-19T02:41:30;18.00;93.01
73875;HTU21D;62209;47.568;7.558;2023-09-19T02:56:37;18.00;94.10
73875;HTU21D;62209;47.568;7.558;2023-09-19T03:11:42;17.92;94.78
73875;HTU21D;62209;47.568;7.558;2023-09-19T03:26:49;17.88;95.09
73875;HTU21D;62209;47.568;7.558;2023-09-19T03:41:55;17.81;95.53
73875;HTU21D;62209;47.568;7.558;2023-09-19T03:57:01;17.81;95.87
73875;HTU21D;62209;47.568;7.558;2023-09-19T04:12:08;17.74;96.33
73875;HTU21D;62209;47.568;7.558;2023-09-19T04:27:14;17.62;97.02
73875;HTU21D;62209;47.568;7.558;2023-09-19T04:42:19;17.36;98.48
73875;HTU21D;62209;47.568;7.558;2023-09-19T04:57:27;17.13;99.15
73875;HTU21D;62209;47.568;7.558;2023-09-19T05:12:34;17.11;100.30
73875;HTU21D;62209;47.568;7.558;2023-09-19T05:27:40;17.20;100.03
73875;HTU21D;62209;47.568;7.558;2023-09-19T05:42:46;17.32;100.64
73875;HTU21D;62209;47.568;7.558;2023-09-19T05:57:53;17.46;100.33
73875;HTU21D;62209;47.568;7.558;2023-09-19T06:12:59;17.45;101.22
73875;HTU21D;62209;47.568;7.558;2023-09-19T06:28:07;17.63;98.27
73875;HTU21D;62209;47.568;7.558;2023-09-19T06:43:15;17.82;98.02
73875;HTU21D;62209;47.568;7.558;2023-09-19T06:58:21;18.04;96.29
73875;HTU21D;62209;47.568;7.558;2023-09-19T07:13:27;18.33;95.39
73875;HTU21D;62209;47.568;7.558;2023-09-19T07:28:33;18.49;95.01
73875;HTU21D;62209;47.568;7.558;2023-09-19T07:43:40;19.33;92.68
73875;HTU21D;62209;47.568;7.558;2023-09-19T07:58:47;19.26;92.78
73875;HTU21D;62209;47.568;7.558;2023-09-19T08:13:54;20.47;89.38
73875;HTU21D;62209;47.568;7.558;2023-09-19T08:29:00;19.40;91.22
73875;HTU21D;62209;47.568;7.558;2023-09-19T08:44:09;21.33;87.61
73875;HTU21D;62209;47.568;7.558;2023-09-19T08:59:15;20.47;88.64
73875;HTU21D;62209;47.568;7.558;2023-09-19T09:14:22;21.69;85.73
73875;HTU21D;62209;47.568;7.558;2023-09-19T09:29:41;22.97;82.89
73875;HTU21D;62209;47.568;7.558;2023-09-19T09:44:52;22.81;81.86
73875;HTU21D;62209;47.568;7.558;2023-09-19T10:00:19;24.20;79.96
73875;HTU21D;62209;47.568;7.558;2023-09-19T10:15:25;22.50;84.07
73875;HTU21D;62209;47.568;7.558;2023-09-19T10:30:35;24.31;81.90
73875;HTU21D;62209;47.568;7.558;2023-09-19T10:45:42;24.41;79.56
73875;HTU21D;62209;47.568;7.558;2023-09-19T11:00:54;23.82;78.41
73875;HTU21D;62209;47.568;7.558;2023-09-19T11:16:05;24.50;81.59
73875;HTU21D;62209;47.568;7.558;2023-09-19T11:47:03;24.70;78.69
73875;HTU21D;62209;47.568;7.558;2023-09-19T12:02:10;25.48;77.75
73875;HTU21D;62209;47.568;7.558;2023-09-19T12:17:28;23.54;77.47
73875;HTU21D;62209;47.568;7.558;2023-09-19T12:32:40;24.42;76.18
73875;HTU21D;62209;47.568;7.558;2023-09-19T13:03:27;23.75;78.53
73875;HTU21D;62209;47.568;7.558;2023-09-19T13:18:45;25.15;75.78
73875;HTU21D;62209;47.568;7.558;2023-09-19T13:33:54;25.18;72.75
73875;HTU21D;62209;47.568;7.558;2023-09-19T13:49:00;25.06;71.37
73875;HTU21D;62209;47.568;7.558;2023-09-19T14:04:07;24.85;70.93
73875;HTU21D;62209;47.568;7.558;2023-09-19T14:19:14;24.99;69.62
73875;HTU21D;62209;47.568;7.558;2023-09-19T14:34:21;25.05;70.90
73875;HTU21D;62209;47.568;7.558;2023-09-19T14:49:27;24.89;70.48
73875;HTU21D;62209;47.568;7.558;2023-09-19T15:04:33;24.93;72.05
73875;HTU21D;62209;47.568;7.558;2023-09-19T15:19:40;24.85;72.57
73875;HTU21D;62209;47.568;7.558;2023-09-19T15:34:48;24.68;72.70
73875;HTU21D;62209;47.568;7.558;2023-09-19T15:49:54;24.13;73.01
73875;HTU21D;62209;47.568;7.558;2023-09-19T16:05:00;23.67;74.40
73875;HTU21D;62209;47.568;7.558;2023-09-19T16:20:07;23.56;74.67
73875;HTU21D;62209;47.568;7.558;2023-09-19T16:35:16;26.26;70.64
73875;HTU21D;62209;47.568;7.558;2023-09-19T16:50:22;28.52;63.39
73875;HTU21D;62209;47.568;7.558;2023-09-19T17:05:28;27.23;64.14
73875;HTU21D;62209;47.568;7.558;2023-09-19T17:20:34;22.24;80.56
73875;HTU21D;62209;47.568;7.558;2023-09-19T17:35:46;21.42;84.50
73875;HTU21D;62209;47.568;7.558;2023-09-19T17:50:59;20.70;87.80
73875;HTU21D;62209;47.568;7.558;2023-09-19T18:06:06;19.74;90.04
73875;HTU21D;62209;47.568;7.558;2023-09-19T18:21:12;19.37;92.00
73875;HTU21D;62209;47.568;7.558;2023-09-19T18:36:18;19.10;91.69
73875;HTU21D;62209;47.568;7.558;2023-09-19T18:51:23;18.58;92.18
73875;HTU21D;62209;47.568;7.558;2023-09-19T19:06:29;18.08;95.64
73875;HTU21D;62209;47.568;7.558;2023-09-19T19:21:35;17.87;95.89
73875;HTU21D;62209;47.568;7.558;2023-09-19T19:36:41;17.16;98.07
73875;HTU21D;62209;47.568;7.558;2023-09-19T19:51:48;17.22;97.81
73875;HTU21D;62209;47.568;7.558;2023-09-19T20:06:53;16.93;98.72
73875;HTU21D;62209;47.568;7.558;2023-09-19T20:21:59;16.54;99.59
73875;HTU21D;62209;47.568;7.558;2023-09-19T20:37:09;16.17;101.06
73875;HTU21D;62209;47.568;7.558;2023-09-19T20:52:15;16.32;100.68
73875;HTU21D;62209;47.568;7.558;2023-09-19T21:07:21;16.00;101.16
73875;HTU21D;62209;47.568;7.558;2023-09-19T21:22:27;15.65;101.87
73875;HTU21D;62209;47.568;7.558;2023-09-19T21:37:33;15.57;102.21
73875;HTU21D;62209;47.568;7.558;2023-09-19T21:52:39;15.71;101.78
73875;HTU21D;62209;47.568;7.558;2023-09-19T22:07:46;15.85;101.66
73875;HTU21D;62209;47.568;7.558;2023-09-19T22:22:52;15.39;102.61
73875;HTU21D;62209;47.568;7.558;2023-09-19T22:37:59;15.77;101.28
73875;HTU21D;62209;47.568;7.558;2023-09-19T22:53:17;15.55;101.43
73875;HTU21D;62209;47.568;7.558;2023-09-19T23:08:25;15.22;103.40
73875;HTU21D;62209;47.568;7.558;2023-09-19T23:23:30;15.41;103.53
73875;HTU21D;62209;47.568;7.558;2023-09-19T23:38:37;15.58;103.78
73875;HTU21D;62209;47.568;7.558;2023-09-19T23:53:43;15.49;103.61
